createdAt,value
2023-03-16T00:02:17.557Z,3.70
2023-03-16T00:04:47.858Z,3.60
2023-03-16T00:07:19.102Z,3.60
2023-03-16T00:09:51.789Z,3.60
2023-03-16T00:12:22.990Z,3.60
2023-03-16T00:14:54.235Z,3.50
2023-03-16T00:17:26.857Z,3.50
2023-03-16T00:19:59.306Z,3.50
2023-03-16T00:22:32.798Z,3.50
2023-03-16T00:25:05.583Z,3.60
2023-03-16T00:27:35.796Z,3.60
2023-03-16T00:30:11.708Z,3.50
2023-03-16T00:32:42.465Z,3.50
2023-03-16T00:35:12.892Z,3.50
2023-03-16T00:37:46.000Z,3.70
2023-03-16T00:40:19.552Z,3.40
2023-03-16T00:42:49.741Z,3.50
2023-03-16T00:45:20.148Z,3.40
2023-03-16T00:47:54.234Z,3.40
2023-03-16T00:50:24.441Z,3.40
2023-03-16T00:52:54.628Z,3.50
2023-03-16T00:55:28.990Z,3.50
2023-03-16T00:57:59.501Z,3.50
2023-03-16T01:00:30.496Z,3.40
2023-03-16T01:03:00.757Z,3.30
2023-03-16T01:05:33.451Z,3.40
2023-03-16T01:08:04.434Z,3.30
2023-03-16T01:10:37.713Z,3.40
2023-03-16T01:13:07.863Z,3.50
2023-03-16T01:15:37.969Z,3.50
2023-03-16T01:18:08.325Z,3.40
2023-03-16T01:20:40.913Z,3.40
2023-03-16T01:23:11.174Z,3.50
2023-03-16T01:25:43.871Z,3.50
2023-03-16T01:28:14.108Z,3.50
2023-03-16T01:30:46.411Z,3.60
2023-03-16T01:33:16.742Z,3.60
2023-03-16T01:35:56.593Z,3.70
2023-03-16T01:38:28.503Z,3.80
2023-03-16T01:41:01.525Z,3.70
2023-03-16T01:43:34.536Z,3.70
2023-03-16T01:46:24.819Z,3.70
2023-03-16T01:49:25.294Z,3.60
2023-03-16T01:52:02.323Z,3.50
2023-03-16T01:54:37.864Z,3.50
2023-03-16T01:57:16.455Z,3.50
2023-03-16T01:59:53.395Z,3.60
2023-03-16T02:02:29.226Z,3.50
2023-03-16T02:05:07.263Z,3.70
2023-03-16T02:07:46.117Z,3.60
2023-03-16T02:10:21.018Z,3.60
2023-03-16T02:12:55.087Z,3.60
2023-03-16T02:15:25.756Z,3.60
2023-03-16T02:17:57.768Z,3.80
2023-03-16T02:20:42.577Z,3.70
2023-03-16T02:23:18.585Z,3.70
2023-03-16T02:26:01.723Z,3.60
2023-03-16T02:28:48.242Z,3.60
2023-03-16T02:31:22.637Z,3.70
2023-03-16T02:33:56.836Z,3.70
2023-03-16T02:36:27.435Z,3.70
2023-03-16T02:38:57.562Z,3.70
2023-03-16T02:41:27.855Z,3.70
2023-03-16T02:44:07.548Z,3.70
2023-03-16T02:46:43.609Z,3.60
2023-03-16T02:49:25.500Z,3.60
2023-03-16T02:51:57.655Z,3.60
2023-03-16T02:54:28.296Z,3.50
2023-03-16T02:56:58.569Z,3.50
2023-03-16T02:59:28.792Z,3.50
2023-03-16T03:02:01.748Z,3.60
2023-03-16T03:04:33.129Z,3.60
2023-03-16T03:07:05.576Z,3.60
2023-03-16T03:09:36.281Z,3.70
2023-03-16T03:12:07.219Z,3.70
2023-03-16T03:14:38.081Z,3.80
2023-03-16T03:17:14.482Z,3.70
2023-03-16T03:19:44.985Z,3.60
2023-03-16T03:22:19.691Z,3.50
2023-03-16T03:24:49.813Z,3.50
2023-03-16T03:27:19.997Z,3.40
2023-03-16T03:29:50.293Z,3.40
2023-03-16T03:32:23.241Z,3.40
2023-03-16T03:34:53.443Z,3.50
2023-03-16T03:37:24.591Z,4.00
2023-03-16T03:39:55.619Z,4.20
2023-03-16T03:42:26.210Z,4.10
2023-03-16T03:44:59.157Z,3.80
2023-03-16T03:47:37.487Z,3.60
2023-03-16T03:50:10.266Z,3.60
2023-03-16T03:52:40.590Z,3.60
2023-03-16T03:55:13.499Z,3.60
2023-03-16T03:57:43.936Z,3.60
2023-03-16T04:00:16.857Z,3.70
2023-03-16T04:02:49.770Z,3.80
2023-03-16T04:05:20.166Z,3.80
2023-03-16T04:07:55.160Z,3.80
2023-03-16T04:10:25.681Z,3.60
2023-03-16T04:12:56.263Z,3.70
2023-03-16T04:15:26.846Z,3.60
2023-03-16T04:17:59.589Z,3.80
2023-03-16T04:20:30.005Z,3.70
2023-03-16T04:23:01.066Z,3.70
2023-03-16T04:25:32.127Z,3.70
2023-03-16T04:28:02.498Z,3.70
2023-03-16T04:30:32.684Z,3.60
2023-03-16T04:33:05.619Z,3.80
2023-03-16T04:35:35.771Z,3.70
2023-03-16T04:38:06.628Z,3.80
2023-03-16T04:40:36.831Z,3.80
2023-03-16T04:43:07.551Z,3.80
2023-03-16T04:45:37.762Z,3.70
2023-03-16T04:48:10.692Z,3.60
2023-03-16T04:50:41.043Z,3.60
2023-03-16T04:53:11.513Z,3.70
2023-03-16T04:55:42.346Z,3.70
2023-03-16T04:58:13.854Z,3.70
2023-03-16T05:00:45.553Z,3.60
2023-03-16T05:03:20.428Z,3.60
2023-03-16T05:05:51.985Z,3.80
2023-03-16T05:08:22.196Z,3.70
2023-03-16T05:10:52.298Z,3.80
2023-03-16T05:13:24.666Z,3.80
2023-03-16T05:15:56.334Z,3.90
2023-03-16T05:18:29.285Z,3.90
2023-03-16T05:21:00.240Z,3.90
2023-03-16T05:23:33.385Z,3.90
2023-03-16T05:26:04.742Z,3.80
2023-03-16T05:28:37.607Z,3.80
2023-03-16T05:31:08.306Z,3.70
2023-03-16T05:33:41.283Z,3.60
2023-03-16T05:36:13.153Z,3.70
2023-03-16T05:38:43.972Z,3.80
2023-03-16T05:41:14.947Z,3.80
2023-03-16T05:43:45.096Z,3.80
2023-03-16T05:46:15.297Z,3.70
2023-03-16T05:48:48.196Z,3.80
2023-03-16T05:51:18.278Z,3.80
2023-03-16T05:53:49.137Z,3.90
2023-03-16T05:56:19.280Z,3.80
2023-03-16T05:58:49.467Z,3.80
2023-03-16T06:01:20.202Z,3.80
2023-03-16T06:03:54.741Z,3.80
2023-03-16T06:06:25.881Z,3.80
2023-03-16T06:08:56.235Z,3.70
2023-03-16T06:11:26.567Z,3.80
2023-03-16T06:13:58.052Z,4.00
2023-03-16T06:16:28.409Z,4.00
2023-03-16T06:19:01.190Z,3.90
2023-03-16T06:21:31.288Z,4.10
2023-03-16T06:24:02.092Z,4.30
2023-03-16T06:26:32.218Z,4.40
2023-03-16T06:29:02.456Z,4.50
2023-03-16T06:31:34.197Z,4.40
2023-03-16T06:34:07.242Z,4.50
2023-03-16T06:36:39.698Z,4.50
2023-03-16T06:39:09.965Z,4.50
2023-03-16T06:41:40.326Z,4.50
2023-03-16T06:44:10.567Z,4.70
2023-03-16T06:46:41.712Z,4.70
2023-03-16T06:49:14.455Z,4.60
2023-03-16T06:51:56.703Z,4.70
2023-03-16T06:54:27.207Z,4.60
2023-03-16T06:56:57.395Z,4.70
2023-03-16T06:59:28.063Z,4.80
2023-03-16T07:01:59.059Z,4.80
2023-03-16T07:04:31.947Z,5.00
2023-03-16T07:07:02.067Z,5.10
2023-03-16T07:09:32.354Z,5.20
2023-03-16T07:12:02.456Z,5.30
2023-03-16T07:14:33.440Z,5.40
2023-03-16T07:17:03.749Z,5.60
2023-03-16T07:19:36.694Z,5.80
2023-03-16T07:22:09.903Z,6.00
2023-03-16T07:24:43.931Z,6.10
2023-03-16T07:27:14.451Z,6.30
2023-03-16T07:29:44.729Z,6.30
2023-03-16T07:32:18.006Z,6.30
2023-03-16T07:34:51.612Z,6.30
2023-03-16T07:37:25.252Z,6.50
2023-03-16T07:39:55.994Z,6.90
2023-03-16T07:42:26.115Z,7.00
2023-03-16T07:44:56.272Z,7.00
2023-03-16T07:47:27.295Z,7.00
2023-03-16T07:50:02.931Z,7.20
2023-03-16T07:52:35.871Z,7.00
2023-03-16T07:55:09.002Z,7.00
2023-03-16T07:57:39.746Z,7.00
2023-03-16T08:00:15.130Z,7.10
2023-03-16T08:02:45.352Z,7.30
2023-03-16T08:05:18.267Z,7.10
2023-03-16T08:07:51.515Z,6.90
2023-03-16T08:10:22.756Z,6.80
2023-03-16T08:12:53.165Z,6.80
2023-03-16T08:15:24.003Z,6.90
2023-03-16T08:17:54.237Z,6.70
2023-03-16T08:20:27.478Z,6.60
2023-03-16T08:22:57.925Z,6.70
2023-03-16T08:25:28.404Z,6.60
2023-03-16T08:27:58.504Z,6.50
2023-03-16T08:30:31.185Z,6.60
2023-03-16T08:33:05.089Z,6.60
2023-03-16T08:35:38.896Z,6.90
2023-03-16T08:38:09.188Z,6.90
2023-03-16T08:40:41.671Z,7.00
2023-03-16T08:43:12.098Z,7.10
2023-03-16T08:45:43.632Z,7.20
2023-03-16T08:48:14.950Z,7.00
2023-03-16T08:50:48.017Z,6.90
2023-03-16T08:53:19.791Z,7.10
2023-03-16T08:55:51.942Z,7.10
2023-03-16T08:58:22.498Z,7.20
2023-03-16T09:00:52.711Z,7.30
2023-03-16T09:03:22.803Z,7.40
2023-03-16T09:05:57.771Z,7.90
2023-03-16T09:08:29.197Z,8.50
2023-03-16T09:11:04.282Z,9.40
2023-03-16T09:13:35.260Z,10.10
2023-03-16T09:16:06.087Z,10.80
2023-03-16T09:18:36.904Z,10.70
2023-03-16T09:21:14.043Z,10.50
2023-03-16T09:23:45.419Z,10.30
2023-03-16T09:26:16.829Z,9.90
2023-03-16T09:28:47.092Z,9.60
2023-03-16T09:31:22.990Z,9.80
2023-03-16T09:33:55.816Z,9.80
2023-03-16T09:36:30.923Z,9.80
2023-03-16T09:39:03.267Z,9.30
2023-03-16T09:41:48.840Z,9.10
2023-03-16T09:44:42.548Z,8.80
2023-03-16T09:47:16.772Z,8.60
2023-03-16T09:49:50.863Z,8.50
2023-03-16T09:52:40.668Z,8.30
2023-03-16T09:55:28.100Z,8.30
2023-03-16T09:58:01.481Z,8.40
2023-03-16T10:00:41.524Z,8.40
2023-03-16T10:03:39.050Z,8.30
2023-03-16T10:06:14.533Z,8.40
2023-03-16T10:08:55.485Z,8.70
2023-03-16T10:11:36.618Z,8.70
2023-03-16T10:14:20.240Z,9.00
2023-03-16T10:16:54.583Z,9.00
2023-03-16T10:19:36.940Z,9.00
2023-03-16T10:22:22.353Z,9.00
2023-03-16T10:25:07.640Z,8.90
2023-03-16T10:27:41.333Z,8.90
2023-03-16T10:30:31.553Z,9.10
2023-03-16T10:33:09.306Z,9.20
2023-03-16T10:35:49.844Z,9.40
2023-03-16T10:38:46.801Z,9.80
2023-03-16T10:41:33.422Z,10.20
2023-03-16T10:44:12.327Z,10.50
2023-03-16T10:46:48.401Z,11.00
2023-03-16T10:49:28.471Z,11.40
2023-03-16T10:52:01.617Z,12.00
2023-03-16T10:54:37.695Z,12.30
2023-03-16T10:57:28.626Z,12.30
2023-03-16T11:00:16.099Z,12.70
2023-03-16T11:02:47.676Z,13.60
2023-03-16T11:05:31.505Z,13.70
2023-03-16T11:08:12.176Z,13.70
2023-03-16T11:10:55.017Z,13.70
2023-03-16T11:13:38.188Z,14.10
2023-03-16T11:16:24.098Z,13.80
2023-03-16T11:19:00.114Z,14.50
2023-03-16T11:21:48.600Z,15.30
2023-03-16T11:24:27.090Z,14.50
2023-03-16T11:27:01.375Z,14.00
2023-03-16T11:29:54.228Z,14.10
2023-03-16T11:32:31.039Z,14.20
2023-03-16T11:35:04.581Z,13.60
2023-03-16T11:37:54.441Z,13.10
2023-03-16T11:40:47.511Z,13.20
2023-03-16T11:43:53.824Z,13.50
2023-03-16T11:46:30.858Z,13.80
2023-03-16T11:49:32.998Z,14.20
2023-03-16T11:52:17.385Z,14.40
2023-03-16T11:55:02.496Z,14.00
2023-03-16T11:57:51.759Z,13.70
2023-03-16T12:01:00.659Z,13.70
2023-03-16T12:03:59.576Z,13.20
2023-03-16T12:06:47.380Z,12.60
2023-03-16T12:10:13.922Z,12.20
2023-03-16T12:13:03.526Z,11.90
2023-03-16T12:15:42.648Z,11.90
2023-03-16T12:18:24.888Z,12.00
2023-03-16T12:21:05.656Z,12.20
2023-03-16T12:23:41.585Z,12.10
2023-03-16T12:26:13.068Z,12.40
2023-03-16T12:28:45.478Z,12.70
2023-03-16T12:31:22.690Z,12.50
2023-03-16T12:34:11.129Z,12.40
2023-03-16T12:37:23.566Z,12.60
2023-03-16T12:40:46.464Z,12.60
2023-03-16T12:43:36.983Z,12.70
2023-03-16T12:46:15.734Z,12.60
2023-03-16T12:48:51.197Z,12.70
2023-03-16T12:51:21.362Z,12.50
2023-03-16T12:53:59.276Z,12.70
2023-03-16T12:56:33.357Z,12.80
2023-03-16T12:59:10.122Z,13.00
2023-03-16T13:01:47.654Z,13.00
2023-03-16T13:04:21.908Z,13.00
2023-03-16T13:07:08.164Z,13.20
2023-03-16T13:09:49.531Z,13.20
2023-03-16T13:12:31.017Z,13.20
2023-03-16T13:15:04.704Z,13.20
2023-03-16T13:17:39.142Z,13.20
2023-03-16T13:20:32.208Z,13.10
2023-03-16T13:23:30.252Z,13.20
2023-03-16T13:26:17.775Z,13.10
2023-03-16T13:28:55.602Z,13.00
2023-03-16T13:31:35.987Z,12.90
2023-03-16T13:34:13.317Z,12.90
2023-03-16T13:36:46.784Z,13.00
2023-03-16T13:39:22.359Z,13.10
2023-03-16T13:42:05.477Z,13.10
2023-03-16T13:44:38.679Z,13.10
2023-03-16T13:47:09.782Z,13.20
2023-03-16T13:49:47.316Z,13.10
2023-03-16T13:52:27.345Z,13.00
2023-03-16T13:54:59.465Z,13.10
2023-03-16T13:57:39.046Z,13.20
2023-03-16T14:00:23.392Z,13.30
2023-03-16T14:02:57.138Z,13.30
2023-03-16T14:05:31.932Z,13.10
2023-03-16T14:08:05.065Z,13.10
2023-03-16T14:10:42.407Z,13.40
2023-03-16T14:13:38.207Z,13.40
2023-03-16T14:16:19.965Z,13.40
2023-03-16T14:18:54.818Z,13.00
2023-03-16T14:21:28.867Z,13.00
2023-03-16T14:24:07.163Z,12.90
2023-03-16T14:26:44.953Z,12.90
2023-03-16T14:29:26.641Z,12.80
2023-03-16T14:31:57.775Z,12.80
2023-03-16T14:34:37.259Z,12.70
2023-03-16T14:37:12.832Z,12.80
2023-03-16T14:39:50.221Z,12.80
2023-03-16T14:42:31.135Z,12.60
2023-03-16T14:45:09.465Z,12.60
2023-03-16T14:47:45.801Z,12.70
2023-03-16T14:50:24.003Z,12.70
2023-03-16T14:52:57.640Z,12.60
2023-03-16T14:55:28.171Z,12.60
2023-03-16T14:57:58.786Z,12.60
2023-03-16T15:00:42.779Z,12.70
2023-03-16T15:03:19.975Z,12.80
2023-03-16T15:05:54.686Z,12.80
2023-03-16T15:08:32.171Z,12.60
2023-03-16T15:11:07.969Z,12.60
2023-03-16T15:13:53.063Z,12.60
2023-03-16T15:16:26.275Z,12.70
2023-03-16T15:18:56.754Z,12.70
2023-03-16T15:21:34.313Z,12.70
2023-03-16T15:24:04.783Z,12.70
2023-03-16T15:26:34.996Z,12.70
2023-03-16T15:29:05.126Z,12.70
2023-03-16T15:31:37.929Z,12.50
2023-03-16T15:34:08.058Z,12.50
2023-03-16T15:36:38.576Z,12.60
2023-03-16T15:39:10.041Z,12.60
2023-03-16T15:41:47.485Z,12.40
2023-03-16T15:44:18.117Z,12.40
2023-03-16T15:46:51.396Z,12.40
2023-03-16T15:49:24.355Z,12.50
2023-03-16T15:51:55.181Z,12.50
2023-03-16T15:54:28.398Z,12.50
2023-03-16T15:56:59.596Z,12.50
2023-03-16T15:59:37.909Z,12.50
2023-03-16T16:02:31.156Z,12.40
2023-03-16T16:05:02.315Z,12.40
2023-03-16T16:07:32.722Z,12.40
2023-03-16T16:10:03.037Z,12.40
2023-03-16T16:12:34.628Z,12.30
2023-03-16T16:15:04.884Z,12.40
2023-03-16T16:17:50.875Z,12.30
2023-03-16T16:20:32.678Z,12.30
2023-03-16T16:23:03.470Z,12.20
2023-03-16T16:25:41.912Z,12.10
2023-03-16T16:28:19.618Z,12.10
2023-03-16T16:30:50.596Z,12.00
2023-03-16T16:33:33.193Z,12.00
2023-03-16T16:36:08.657Z,12.00
2023-03-16T16:38:39.496Z,11.90
2023-03-16T16:41:12.077Z,12.00
2023-03-16T16:43:47.176Z,11.90
2023-03-16T16:46:20.257Z,12.00
2023-03-16T16:48:56.107Z,12.00
2023-03-16T16:51:29.820Z,11.90
2023-03-16T16:54:04.848Z,11.80
2023-03-16T16:56:38.844Z,11.70
2023-03-16T16:59:19.726Z,11.60
2023-03-16T17:01:54.511Z,11.60
2023-03-16T17:04:30.952Z,11.40
2023-03-16T17:07:03.585Z,11.30
2023-03-16T17:09:35.651Z,11.30
2023-03-16T17:12:06.703Z,11.30
2023-03-16T17:14:38.680Z,11.20
2023-03-16T17:17:18.566Z,11.10
2023-03-16T17:19:51.685Z,11.00
2023-03-16T17:22:28.805Z,11.00
2023-03-16T17:24:59.578Z,10.90
2023-03-16T17:27:34.135Z,10.90
2023-03-16T17:30:05.212Z,10.80
2023-03-16T17:32:35.346Z,10.70
2023-03-16T17:35:17.952Z,10.60
2023-03-16T17:37:49.566Z,10.60
2023-03-16T17:40:25.333Z,10.50
2023-03-16T17:42:58.503Z,10.40
2023-03-16T17:45:34.290Z,10.40
2023-03-16T17:48:05.304Z,10.30
2023-03-16T17:50:38.004Z,10.30
2023-03-16T17:53:08.678Z,10.20
2023-03-16T17:55:39.006Z,10.20
2023-03-16T17:58:16.618Z,10.10
2023-03-16T18:00:47.397Z,10.10
2023-03-16T18:03:22.282Z,10.10
2023-03-16T18:05:55.378Z,10.00
2023-03-16T18:08:30.147Z,9.90
2023-03-16T18:11:04.032Z,9.90
2023-03-16T18:13:38.760Z,9.80
2023-03-16T18:16:10.897Z,9.90
2023-03-16T18:18:44.574Z,9.80
2023-03-16T18:21:23.312Z,9.80
2023-03-16T18:23:54.738Z,9.80
2023-03-16T18:26:25.184Z,9.80
2023-03-16T18:28:56.485Z,9.80
2023-03-16T18:31:31.102Z,9.80
2023-03-16T18:34:06.016Z,9.70
2023-03-16T18:36:41.226Z,9.70
2023-03-16T18:39:22.983Z,9.60
2023-03-16T18:41:53.218Z,9.60
2023-03-16T18:44:26.601Z,9.60
2023-03-16T18:47:05.494Z,9.60
2023-03-16T18:49:38.826Z,9.50
2023-03-16T18:52:20.980Z,9.50
2023-03-16T18:54:53.035Z,9.60
2023-03-16T18:57:26.473Z,9.50
2023-03-16T18:59:57.346Z,9.40
2023-03-16T19:02:39.041Z,9.40
2023-03-16T19:05:17.050Z,9.40
2023-03-16T19:07:53.207Z,9.30
2023-03-16T19:10:31.777Z,9.30
2023-03-16T19:13:02.394Z,9.30
2023-03-16T19:15:35.709Z,9.30
2023-03-16T19:18:06.278Z,9.30
2023-03-16T19:20:38.232Z,9.20
2023-03-16T19:23:24.530Z,9.10
2023-03-16T19:25:57.979Z,9.10
2023-03-16T19:28:34.184Z,9.20
2023-03-16T19:31:07.630Z,9.10
2023-03-16T19:33:38.953Z,9.10
2023-03-16T19:36:18.286Z,9.10
2023-03-16T19:38:52.693Z,9.10
2023-03-16T19:41:30.080Z,9.10
2023-03-16T19:44:08.512Z,9.10
2023-03-16T19:46:38.663Z,9.10
2023-03-16T19:49:10.194Z,9.00
2023-03-16T19:51:40.394Z,8.90
2023-03-16T19:54:24.345Z,8.80
2023-03-16T19:56:56.796Z,8.80
2023-03-16T19:59:32.648Z,8.90
2023-03-16T20:02:03.217Z,9.00
2023-03-16T20:04:33.556Z,8.90
2023-03-16T20:07:03.846Z,8.80
2023-03-16T20:09:37.309Z,8.80
2023-03-16T20:12:08.046Z,8.70
2023-03-16T20:14:38.306Z,8.80
2023-03-16T20:17:13.646Z,8.80
2023-03-16T20:19:44.027Z,8.80
2023-03-16T20:22:21.548Z,8.80
2023-03-16T20:24:55.032Z,8.80
2023-03-16T20:27:27.295Z,8.80
2023-03-16T20:29:58.475Z,8.80
2023-03-16T20:32:36.204Z,8.80
2023-03-16T20:35:08.047Z,8.80
2023-03-16T20:37:38.197Z,8.80
2023-03-16T20:40:12.103Z,8.70
2023-03-16T20:42:44.819Z,8.80
2023-03-16T20:45:23.889Z,8.80
2023-03-16T20:47:55.348Z,8.80
2023-03-16T20:50:30.718Z,8.70
2023-03-16T20:53:01.254Z,8.70
2023-03-16T20:55:34.027Z,8.80
2023-03-16T20:58:05.748Z,8.70
2023-03-16T21:00:39.981Z,8.60
2023-03-16T21:03:21.248Z,8.60
2023-03-16T21:05:53.284Z,8.60
2023-03-16T21:08:24.956Z,8.60
2023-03-16T21:10:59.925Z,8.60
2023-03-16T21:13:35.248Z,8.60
2023-03-16T21:16:06.840Z,8.60
2023-03-16T21:18:38.131Z,8.60
2023-03-16T21:21:15.392Z,8.60
2023-03-16T21:23:46.349Z,8.60
2023-03-16T21:26:23.937Z,8.60
2023-03-16T21:28:59.599Z,8.70
2023-03-16T21:31:33.224Z,8.70
2023-03-16T21:34:05.579Z,8.70
2023-03-16T21:36:35.868Z,8.70
2023-03-16T21:39:22.677Z,8.60
2023-03-16T21:41:55.785Z,8.70
2023-03-16T21:44:26.137Z,8.60
2023-03-16T21:46:58.578Z,8.60
2023-03-16T21:49:28.916Z,8.60
2023-03-16T21:52:01.165Z,8.60
2023-03-16T21:54:31.437Z,8.70
2023-03-16T21:57:04.114Z,8.70
2023-03-16T21:59:34.414Z,8.60
2023-03-16T22:02:04.548Z,8.50
2023-03-16T22:04:34.731Z,8.50
2023-03-16T22:07:04.869Z,8.50
2023-03-16T22:09:35.194Z,8.50
2023-03-16T22:12:09.393Z,8.50
2023-03-16T22:14:40.889Z,8.50
2023-03-16T22:17:24.145Z,8.50
2023-03-16T22:19:54.391Z,8.50
2023-03-16T22:22:24.544Z,8.60
2023-03-16T22:24:54.814Z,8.60
2023-03-16T22:27:29.586Z,8.50
2023-03-16T22:29:59.712Z,8.50
2023-03-16T22:32:29.852Z,8.60
2023-03-16T22:35:00.546Z,8.60
2023-03-16T22:37:35.109Z,8.60
2023-03-16T22:40:21.234Z,8.60
2023-03-16T22:42:54.379Z,8.60
2023-03-16T22:45:28.817Z,8.70
2023-03-16T22:48:02.206Z,8.60
2023-03-16T22:50:37.888Z,8.60
2023-03-16T22:53:11.675Z,8.80
2023-03-16T22:55:43.386Z,8.70
2023-03-16T22:58:27.180Z,8.60
2023-03-16T23:00:57.845Z,8.60
2023-03-16T23:03:28.256Z,8.50
2023-03-16T23:05:58.540Z,8.50
2023-03-16T23:08:29.360Z,8.50
2023-03-16T23:10:59.653Z,8.50
2023-03-16T23:13:34.693Z,8.60
2023-03-16T23:16:05.475Z,8.60
2023-03-16T23:18:37.041Z,8.60
2023-03-16T23:21:07.736Z,8.60
2023-03-16T23:23:37.959Z,8.60
2023-03-16T23:26:19.158Z,8.60
2023-03-16T23:28:54.228Z,8.50
2023-03-16T23:31:27.950Z,8.40
2023-03-16T23:33:59.215Z,8.60
2023-03-16T23:36:30.143Z,8.50
2023-03-16T23:39:00.253Z,8.50
2023-03-16T23:41:30.947Z,8.50
2023-03-16T23:44:04.743Z,8.60
2023-03-16T23:46:36.832Z,8.60
2023-03-16T23:49:08.584Z,8.70
2023-03-16T23:51:41.175Z,8.70
2023-03-16T23:54:25.626Z,8.70
2023-03-16T23:56:56.318Z,8.70
2023-03-16T23:59:29.292Z,8.70
